Time;durP1;ratioP1;P1;durP2;ratioP2;P2;SDS_P1;SDS_P2;PMS_P1;PMS_P2;Temp;Humidity;BMP_temperature;BMP_pressure;BME280_temperature;BME280_humidity;BME280_pressure;Samples;Min_cycle;Max_cycle;Signal;HPM_P1;HPM_P2
2023/06/12 00:01:14;;;;;;;7.18;5.90;;;18.80;91.40;;;;;;5076561;28;20165;-90
2023/06/12 00:03:43;;;;;;;9.20;6.55;;;18.90;91.40;;;;;;5076127;28;20216;-90
2023/06/12 00:06:10;;;;;;;8.10;6.40;;;18.90;91.40;;;;;;5076778;28;20684;-90
2023/06/12 00:08:41;;;;;;;9.10;6.50;;;18.90;91.30;;;;;;5076687;28;20185;-90
2023/06/12 00:11:09;;;;;;;11.05;6.75;;;19.00;91.40;;;;;;5076251;28;20207;-91
2023/06/12 00:13:36;;;;;;;8.85;6.05;;;18.90;91.40;;;;;;5076502;28;20586;-91
2023/06/12 00:16:03;;;;;;;8.32;6.32;;;18.90;91.50;;;;;;5076272;28;20601;-91
2023/06/12 00:18:36;;;;;;;10.85;6.88;;;18.90;91.60;;;;;;5076092;28;20185;-92
2023/06/12 00:21:02;;;;;;;8.95;6.15;;;18.90;91.80;;;;;;5076204;28;20165;-92
2023/06/12 00:23:29;;;;;;;9.05;6.60;;;18.80;92.10;;;;;;5076275;28;20169;-91
2023/06/12 00:25:57;;;;;;;10.20;7.03;;;18.80;92.20;;;;;;5076310;28;20178;-92
2023/06/12 00:28:22;;;;;;;10.88;6.80;;;18.80;92.10;;;;;;5076155;28;20173;-89
2023/06/12 00:30:48;;;;;;;8.07;6.57;;;18.70;92.30;;;;;;5075952;28;20543;-92
2023/06/12 00:33:16;;;;;;;12.30;6.35;;;18.80;92.30;;;;;;5075926;28;20285;-91
2023/06/12 00:35:42;;;;;;;10.57;6.65;;;18.70;92.40;;;;;;5076061;28;20205;-92
2023/06/12 00:38:08;;;;;;;10.00;6.43;;;18.70;92.40;;;;;;5076047;28;20177;-90
2023/06/12 00:40:34;;;;;;;7.35;6.60;;;18.60;92.50;;;;;;5075835;28;20204;-90
2023/06/12 00:43:00;;;;;;;7.70;6.72;;;18.60;92.50;;;;;;5075365;28;20596;-91
2023/06/12 00:45:26;;;;;;;9.43;6.28;;;18.60;92.60;;;;;;5075498;28;20912;-90
2023/06/12 00:47:53;;;;;;;9.70;7.10;;;18.60;92.70;;;;;;5075511;28;20181;-91
2023/06/12 00:50:27;;;;;;;7.50;6.55;;;18.60;92.70;;;;;;5075534;28;20173;-91
2023/06/12 00:52:57;;;;;;;9.13;6.90;;;18.50;92.70;;;;;;5075660;28;20193;-91
2023/06/12 00:55:24;;;;;;;10.90;6.82;;;18.50;92.70;;;;;;5075526;28;20176;-92
2023/06/12 00:57:51;;;;;;;11.55;7.30;;;18.40;92.80;;;;;;5075536;28;20185;-90
2023/06/12 01:00:21;;;;;;;9.60;6.70;;;18.50;92.60;;;;;;5075637;28;20177;-89
2023/06/12 01:03:03;;;;;;;9.48;6.75;;;18.50;92.60;;;;;;5075496;28;20177;-89
2023/06/12 01:05:33;;;;;;;8.50;7.05;;;18.40;92.70;;;;;;5076028;28;20264;-91
2023/06/12 01:08:05;;;;;;;7.70;6.90;;;18.30;92.80;;;;;;5076685;28;20669;-89
2023/06/12 01:10:51;;;;;;;8.18;7.35;;;18.30;92.80;;;;;;5074975;28;20173;-91
2023/06/12 01:13:21;;;;;;;9.45;7.20;;;18.30;93.00;;;;;;5075524;28;20235;-91
2023/06/12 01:15:47;;;;;;;7.97;7.00;;;18.30;93.10;;;;;;5075383;28;20211;-90
2023/06/12 01:18:15;;;;;;;9.02;7.00;;;18.20;93.10;;;;;;5074911;28;20855;-90
2023/06/12 01:20:44;;;;;;;7.90;7.10;;;18.20;93.30;;;;;;5075054;28;20238;-91
2023/06/12 01:23:19;;;;;;;8.63;7.35;;;18.20;93.30;;;;;;5075012;28;20256;-92
2023/06/12 01:26:25;;;;;;;8.65;7.20;;;18.10;93.40;;;;;;5075067;28;20172;-91
2023/06/12 01:29:39;;;;;;;9.40;7.35;;;18.10;93.50;;;;;;5075234;28;20181;-91
2023/06/12 01:32:15;;;;;;;8.50;7.60;;;18.00;93.50;;;;;;5074506;28;20201;-92
2023/06/12 01:35:02;;;;;;;10.50;7.93;;;18.10;93.50;;;;;;5074824;28;20165;-91
2023/06/12 01:37:49;;;;;;;8.45;7.57;;;18.10;93.40;;;;;;5074894;28;20169;-91
2023/06/12 01:40:18;;;;;;;9.27;7.90;;;18.10;93.50;;;;;;5074867;28;20247;-90
2023/06/12 01:42:44;;;;;;;8.68;7.63;;;18.10;93.50;;;;;;5075611;28;20209;-91
2023/06/12 01:45:10;;;;;;;11.45;7.65;;;18.20;93.60;;;;;;5075844;28;20165;-88
2023/06/12 01:47:36;;;;;;;10.00;7.35;;;18.10;93.60;;;;;;5074299;28;20180;-91
2023/06/12 01:50:04;;;;;;;10.82;7.60;;;18.10;93.50;;;;;;5074783;28;20219;-91
2023/06/12 01:52:32;;;;;;;12.07;7.55;;;18.10;93.60;;;;;;5074564;28;20215;-91
2023/06/12 01:54:58;;;;;;;12.23;8.10;;;18.10;93.70;;;;;;5074358;28;20184;-91
2023/06/12 01:57:24;;;;;;;9.27;7.93;;;18.20;94.00;;;;;;5074299;28;20177;-89
2023/06/12 02:02:26;;;;;;;11.30;7.88;;;18.10;93.80;;;;;;5274208;22;20323;-91
2023/06/12 02:04:52;;;;;;;10.30;8.00;;;18.10;93.70;;;;;;5054387;28;20170;-91
2023/06/12 02:07:17;;;;;;;8.85;7.70;;;18.10;93.80;;;;;;5055596;28;20189;-90
2023/06/12 02:09:43;;;;;;;12.88;7.35;;;18.10;93.90;;;;;;5054269;28;20197;-89
2023/06/12 02:12:15;;;;;;;12.07;8.23;;;18.00;93.90;;;;;;5055348;28;20284;-92
2023/06/12 02:14:41;;;;;;;9.90;7.38;;;18.00;94.10;;;;;;5055502;28;20227;-89
2023/06/12 02:17:07;;;;;;;9.68;7.47;;;18.00;94.10;;;;;;5054032;28;20562;-89
2023/06/12 02:19:33;;;;;;;10.43;8.00;;;17.90;94.20;;;;;;5070765;28;20174;-89
2023/06/12 02:21:59;;;;;;;9.25;8.18;;;18.00;94.20;;;;;;5053489;28;20182;-90
2023/06/12 02:24:30;;;;;;;11.20;8.13;;;17.90;94.20;;;;;;5054218;28;20260;-91
2023/06/12 02:26:56;;;;;;;10.27;7.95;;;17.90;94.20;;;;;;5053636;28;20185;-91
2023/06/12 02:29:22;;;;;;;10.32;7.80;;;17.90;94.30;;;;;;5053483;28;20515;-91
2023/06/12 02:31:48;;;;;;;9.68;7.68;;;17.80;94.20;;;;;;5061186;28;20599;-90
2023/06/12 02:34:14;;;;;;;12.93;7.65;;;17.80;94.30;;;;;;5073541;28;20177;-90
2023/06/12 02:36:41;;;;;;;11.32;8.05;;;17.80;94.30;;;;;;5074049;28;20251;-90
2023/06/12 02:39:08;;;;;;;8.60;7.70;;;17.80;94.40;;;;;;5074196;28;20177;-91
2023/06/12 02:41:35;;;;;;;9.52;7.50;;;17.70;94.30;;;;;;5074075;28;20271;-91
2023/06/12 02:44:02;;;;;;;10.45;7.25;;;17.70;94.40;;;;;;5073809;28;20208;-89
2023/06/12 02:46:27;;;;;;;9.48;7.80;;;17.70;94.60;;;;;;5073973;28;20185;-90
2023/06/12 02:48:56;;;;;;;8.95;7.88;;;17.70;94.60;;;;;;5074044;28;20177;-89
2023/06/12 02:51:22;;;;;;;8.68;7.30;;;17.60;94.60;;;;;;5073981;28;20269;-92
2023/06/12 02:53:53;;;;;;;10.80;6.95;;;17.60;94.60;;;;;;5073727;28;20214;-89
2023/06/12 02:56:19;;;;;;;12.15;7.75;;;17.60;94.70;;;;;;5073836;28;20173;-90
2023/06/12 02:58:44;;;;;;;11.52;7.30;;;17.50;94.70;;;;;;5073942;28;20181;-91
2023/06/12 03:01:10;;;;;;;8.73;7.75;;;17.50;94.80;;;;;;5073266;28;20224;-91
2023/06/12 03:03:43;;;;;;;8.45;7.22;;;17.50;94.90;;;;;;5074673;28;20173;-88
2023/06/12 03:06:11;;;;;;;9.30;7.32;;;17.50;94.80;;;;;;5073637;28;20238;-90
2023/06/12 03:08:37;;;;;;;9.98;7.38;;;17.50;94.80;;;;;;5073828;28;20181;-90
2023/06/12 03:11:03;;;;;;;10.30;7.25;;;17.40;94.80;;;;;;5073432;28;20262;-89
2023/06/12 03:13:29;;;;;;;7.97;7.18;;;17.40;95.00;;;;;;5073503;28;20195;-91
2023/06/12 03:15:55;;;;;;;8.35;6.90;;;17.40;95.10;;;;;;5074029;28;20174;-90
2023/06/12 03:18:20;;;;;;;9.75;7.28;;;17.30;95.30;;;;;;5073672;28;20607;-91
2023/06/12 03:20:46;;;;;;;10.00;7.28;;;17.30;95.10;;;;;;5073094;28;20608;-90
2023/06/12 03:23:12;;;;;;;10.35;6.85;;;17.30;95.50;;;;;;5073369;28;20185;-91
2023/06/12 03:25:38;;;;;;;7.68;6.72;;;17.20;96.00;;;;;;5073510;28;20612;-90
2023/06/12 03:28:04;;;;;;;9.02;7.53;;;17.20;96.10;;;;;;5073657;28;20204;-90
2023/06/12 03:30:29;;;;;;;9.15;7.30;;;17.20;95.90;;;;;;5073431;28;20634;-91
2023/06/12 03:32:57;;;;;;;9.23;7.80;;;17.10;96.30;;;;;;5072309;28;20205;-90
2023/06/12 03:35:23;;;;;;;9.93;6.78;;;17.10;96.00;;;;;;5077510;28;20219;-90
2023/06/12 03:37:49;;;;;;;7.88;6.90;;;17.00;96.80;;;;;;5077283;28;20177;-90
2023/06/12 03:40:15;;;;;;;8.85;7.25;;;17.00;97.10;;;;;;5076780;28;20184;-90
2023/06/12 03:42:41;;;;;;;12.10;7.28;;;16.90;97.40;;;;;;5076865;28;20603;-89
2023/06/12 03:45:10;;;;;;;8.35;7.18;;;16.90;97.40;;;;;;5077125;28;20177;-90
2023/06/12 03:47:36;;;;;;;8.65;7.80;;;16.90;97.40;;;;;;5076682;28;20256;-91
2023/06/12 03:50:02;;;;;;;10.02;7.60;;;16.80;97.40;;;;;;5076801;28;20584;-90
2023/06/12 03:52:27;;;;;;;8.18;7.30;;;16.80;97.60;;;;;;5077123;28;20221;-91
2023/06/12 03:55:02;;;;;;;8.13;7.32;;;16.80;97.30;;;;;;5076428;28;20174;-90
2023/06/12 03:57:28;;;;;;;9.30;7.40;;;16.80;97.30;;;;;;5077110;28;20181;-90
2023/06/12 03:59:53;;;;;;;9.23;8.00;;;16.80;97.30;;;;;;5076842;28;20184;-91
2023/06/12 04:02:20;;;;;;;12.48;7.53;;;16.70;98.30;;;;;;5076348;28;20762;-90
2023/06/12 04:04:47;;;;;;;13.63;8.98;;;16.80;98.70;;;;;;5076434;28;20266;-92
2023/06/12 04:07:14;;;;;;;9.45;7.70;;;16.70;98.30;;;;;;5076369;28;20181;-91
2023/06/12 04:09:40;;;;;;;9.48;7.53;;;16.80;98.10;;;;;;5076530;28;20226;-91
2023/06/12 04:12:07;;;;;;;8.93;7.10;;;16.80;98.50;;;;;;5076326;28;20300;-91
2023/06/12 04:14:32;;;;;;;8.48;7.15;;;16.80;98.70;;;;;;5076331;28;20180;-91
2023/06/12 04:16:58;;;;;;;7.78;6.97;;;16.80;98.50;;;;;;5076119;28;20173;-90
2023/06/12 04:19:24;;;;;;;10.20;7.10;;;16.80;98.80;;;;;;5075575;28;20173;-91
2023/06/12 04:21:50;;;;;;;12.27;7.30;;;16.80;99.20;;;;;;5075629;28;20695;-90
2023/06/12 04:24:16;;;;;;;10.88;7.22;;;16.80;98.50;;;;;;5076003;28;20178;-90
2023/06/12 04:26:46;;;;;;;8.82;7.43;;;16.80;98.80;;;;;;5076243;28;20562;-90
2023/06/12 04:29:12;;;;;;;7.50;6.75;;;16.90;99.60;;;;;;5076067;28;20177;-90
2023/06/12 04:31:39;;;;;;;8.00;6.20;;;17.00;99.50;;;;;;5075661;28;20665;-90
2023/06/12 04:34:06;;;;;;;8.93;7.13;;;17.00;99.60;;;;;;5075830;28;20177;-91
2023/06/12 04:36:37;;;;;;;8.52;6.57;;;17.10;98.70;;;;;;5075832;28;20173;-91
2023/06/12 04:39:04;;;;;;;7.05;6.35;;;17.10;98.50;;;;;;5077099;28;20165;-89
2023/06/12 04:41:32;;;;;;;9.40;6.45;;;17.20;98.80;;;;;;5075473;28;20180;-89
2023/06/12 04:44:00;;;;;;;8.88;6.30;;;17.40;97.40;;;;;;5075979;28;20611;-90
2023/06/12 04:46:28;;;;;;;9.55;6.45;;;17.60;96.90;;;;;;5074924;28;20173;-91
2023/06/12 04:48:53;;;;;;;12.23;6.10;;;17.70;96.50;;;;;;5075817;28;20242;-89
2023/06/12 04:51:19;;;;;;;12.18;6.88;;;17.80;96.50;;;;;;5075459;28;20698;-89
2023/06/12 04:53:47;;;;;;;7.22;6.10;;;17.90;96.40;;;;;;5075593;28;20180;-91
2023/06/12 04:56:20;;;;;;;8.18;6.07;;;17.90;96.30;;;;;;5075776;28;20177;-91
2023/06/12 04:58:46;;;;;;;11.68;6.30;;;17.90;97.20;;;;;;5075816;28;20272;-89
2023/06/12 05:01:12;;;;;;;7.20;5.80;;;18.00;96.40;;;;;;5075354;28;20228;-89
2023/06/12 05:03:41;;;;;;;8.90;6.13;;;18.10;95.80;;;;;;5075929;28;20184;-90
2023/06/12 05:06:07;;;;;;;6.90;5.97;;;18.10;95.60;;;;;;5075348;28;20205;-88
2023/06/12 05:08:34;;;;;;;7.80;5.65;;;18.10;95.60;;;;;;5075334;28;20247;-92
2023/06/12 05:11:00;;;;;;;8.82;5.95;;;18.00;94.90;;;;;;5075191;28;20700;-89
2023/06/12 05:13:26;;;;;;;8.52;5.72;;;18.00;95.40;;;;;;5075266;28;20268;-90
2023/06/12 05:15:53;;;;;;;10.75;5.80;;;18.00;95.50;;;;;;5075068;28;20177;-89
2023/06/12 05:18:19;;;;;;;6.38;5.50;;;18.10;95.50;;;;;;5074649;28;20587;-91
2023/06/12 05:20:44;;;;;;;8.07;5.38;;;18.20;95.20;;;;;;5075906;28;20245;-92
2023/06/12 05:23:10;;;;;;;10.20;6.18;;;18.30;94.80;;;;;;5074832;28;20184;-91
2023/06/12 05:25:39;;;;;;;7.53;5.32;;;18.50;94.80;;;;;;5076213;28;20210;-89
2023/06/12 05:28:05;;;;;;;11.07;5.40;;;18.70;94.50;;;;;;5076052;28;20173;-89
2023/06/12 05:30:31;;;;;;;6.25;5.20;;;18.80;94.00;;;;;;5074941;28;20181;-91
2023/06/12 05:32:58;;;;;;;7.82;5.50;;;19.00;93.50;;;;;;5074568;28;20228;-91
2023/06/12 05:35:25;;;;;;;7.35;5.25;;;19.10;93.20;;;;;;5074901;28;20199;-91
2023/06/12 05:37:51;;;;;;;7.80;4.78;;;19.20;93.00;;;;;;5075970;28;20604;-90
2023/06/12 05:40:17;;;;;;;6.05;4.47;;;19.20;93.00;;;;;;5074812;28;20173;-90
2023/06/12 05:42:42;;;;;;;6.25;4.38;;;19.30;92.50;;;;;;5074693;28;20184;-90
2023/06/12 05:45:10;;;;;;;5.72;4.03;;;19.40;92.70;;;;;;5074561;28;20200;-89
2023/06/12 05:47:36;;;;;;;6.80;3.92;;;19.50;91.90;;;;;;5074246;28;20172;-92
2023/06/12 05:50:02;;;;;;;6.50;3.85;;;19.50;91.60;;;;;;5074729;28;20725;-91
2023/06/12 05:52:27;;;;;;;6.88;3.97;;;19.50;91.60;;;;;;5074561;28;20247;-90
2023/06/12 05:55:00;;;;;;;7.53;4.10;;;19.60;91.40;;;;;;5074180;28;20595;-90
2023/06/12 05:57:26;;;;;;;12.88;4.20;;;19.60;91.60;;;;;;5073409;28;20177;-91
2023/06/12 05:59:52;;;;;;;4.15;3.75;;;19.70;91.20;;;;;;5074317;28;20261;-90
2023/06/12 06:02:18;;;;;;;5.25;3.83;;;19.80;91.10;;;;;;5074171;28;20746;-90
2023/06/12 06:04:44;;;;;;;7.85;3.92;;;19.80;91.60;;;;;;5074183;28;20185;-90
2023/06/12 06:07:11;;;;;;;5.65;3.67;;;19.90;91.00;;;;;;5074008;28;20260;-91
2023/06/12 06:09:37;;;;;;;5.05;3.90;;;20.00;90.60;;;;;;5074377;28;20530;-89
2023/06/12 06:12:03;;;;;;;7.72;3.47;;;20.10;90.50;;;;;;5073989;28;20213;-92
2023/06/12 06:14:29;;;;;;;7.85;3.63;;;20.20;90.70;;;;;;5073814;28;20174;-90
2023/06/12 06:16:55;;;;;;;8.35;3.50;;;20.20;91.00;;;;;;5073942;28;20547;-91
2023/06/12 06:19:21;;;;;;;6.22;3.97;;;20.40;90.90;;;;;;5073778;28;20226;-90
2023/06/12 06:21:47;;;;;;;5.78;3.28;;;20.50;89.90;;;;;;5074058;28;20264;-90
2023/06/12 06:24:13;;;;;;;5.70;3.40;;;20.60;88.30;;;;;;5074101;28;20184;-90
2023/06/12 06:26:38;;;;;;;8.80;4.03;;;20.70;88.20;;;;;;5073723;28;20536;-92
2023/06/12 06:29:05;;;;;;;5.90;3.60;;;20.70;87.80;;;;;;5073944;28;20173;-92
2023/06/12 06:31:30;;;;;;;6.25;3.58;;;20.80;87.30;;;;;;5073831;28;20221;-90
2023/06/12 06:33:56;;;;;;;5.65;3.90;;;20.80;87.50;;;;;;5072824;28;20177;-90
2023/06/12 06:36:23;;;;;;;5.13;3.33;;;20.90;85.80;;;;;;5074127;28;20188;-88
2023/06/12 06:38:49;;;;;;;4.93;3.00;;;21.00;85.70;;;;;;5073891;28;20173;-90
2023/06/12 06:41:14;;;;;;;4.95;3.28;;;21.10;84.70;;;;;;5073622;28;20180;-89
2023/06/12 06:43:40;;;;;;;7.55;3.15;;;21.20;83.90;;;;;;5073271;28;20187;-91
2023/06/12 06:46:07;;;;;;;7.55;3.08;;;21.30;84.80;;;;;;5074030;28;20497;-91
2023/06/12 06:48:33;;;;;;;4.95;3.10;;;21.40;83.70;;;;;;5073800;28;20185;-91
2023/06/12 06:50:58;;;;;;;4.22;2.95;;;21.50;83.30;;;;;;5074829;28;20169;-89
2023/06/12 06:53:25;;;;;;;4.95;3.30;;;21.60;83.10;;;;;;5073438;28;20184;-89
2023/06/12 06:55:52;;;;;;;7.78;2.88;;;21.60;83.30;;;;;;5073748;28;20208;-93
2023/06/12 06:58:18;;;;;;;9.55;3.00;;;21.80;82.40;;;;;;5073502;28;20188;-92
2023/06/12 07:00:45;;;;;;;6.28;2.70;;;21.90;82.00;;;;;;5073257;28;20499;-89
2023/06/12 07:03:11;;;;;;;5.35;2.88;;;22.10;82.70;;;;;;5073479;28;20188;-89
2023/06/12 07:05:37;;;;;;;5.72;2.97;;;22.30;82.10;;;;;;5073830;28;20525;-90
2023/06/12 07:08:03;;;;;;;6.45;3.15;;;22.40;80.40;;;;;;5074407;28;20169;-89
2023/06/12 07:10:29;;;;;;;4.78;2.95;;;22.60;79.60;;;;;;5077601;28;20169;-91
2023/06/12 07:12:57;;;;;;;5.80;3.00;;;22.60;80.10;;;;;;5077517;28;20212;-92
2023/06/12 07:15:27;;;;;;;4.53;3.08;;;22.80;79.70;;;;;;5077746;28;20177;-94
2023/06/12 07:17:53;;;;;;;4.45;2.90;;;23.00;80.20;;;;;;5077523;28;20179;-91
2023/06/12 07:20:18;;;;;;;4.90;3.00;;;23.10;80.00;;;;;;5076983;28;20514;-91
2023/06/12 07:22:44;;;;;;;6.93;2.65;;;23.20;79.90;;;;;;5077376;28;20169;-89
2023/06/12 07:25:10;;;;;;;4.40;2.53;;;23.40;79.80;;;;;;5077349;28;20177;-90
2023/06/12 07:27:41;;;;;;;10.43;2.90;;;23.40;76.70;;;;;;5077258;28;20187;-90
2023/06/12 07:30:08;;;;;;;5.07;2.67;;;23.50;76.20;;;;;;5077147;28;20180;-92
2023/06/12 07:32:37;;;;;;;4.10;2.53;;;23.60;76.10;;;;;;5076925;28;20208;-91
2023/06/12 07:35:03;;;;;;;6.07;2.47;;;23.60;75.70;;;;;;5078393;28;20179;-90
2023/06/12 07:37:35;;;;;;;4.65;2.65;;;23.80;77.30;;;;;;5077055;28;20184;-89
2023/06/12 07:40:03;;;;;;;6.85;2.30;;;23.80;74.80;;;;;;5077334;28;20169;-92
2023/06/12 07:42:29;;;;;;;3.05;2.47;;;23.90;74.00;;;;;;5076877;28;20619;-91
2023/06/12 07:44:55;;;;;;;4.38;2.30;;;24.00;75.00;;;;;;5076903;28;20194;-91
2023/06/12 07:47:21;;;;;;;6.65;2.72;;;24.10;74.90;;;;;;5076714;28;20181;-94
2023/06/12 07:49:46;;;;;;;4.07;2.20;;;24.20;72.80;;;;;;5076853;28;20170;-88
2023/06/12 07:52:12;;;;;;;3.33;2.40;;;24.20;70.80;;;;;;5077954;28;20677;-91
2023/06/12 07:54:38;;;;;;;5.15;2.20;;;24.20;70.60;;;;;;5076430;28;20176;-92
2023/06/12 07:57:06;;;;;;;3.22;2.47;;;24.30;70.00;;;;;;5076689;28;20287;-91
2023/06/12 07:59:32;;;;;;;4.85;2.40;;;24.40;72.50;;;;;;5076542;28;20197;-94
2023/06/12 08:01:58;;;;;;;4.65;2.00;;;24.50;73.10;;;;;;5076398;28;20775;-94
2023/06/12 08:04:24;;;;;;;2.38;1.80;;;24.70;73.10;;;;;;5077151;28;20611;-90
2023/06/12 08:06:54;;;;;;;2.58;2.10;;;24.70;69.70;;;;;;5076739;28;20184;-90
2023/06/12 08:09:20;;;;;;;2.58;1.98;;;24.80;70.30;;;;;;5078185;28;20165;-91
2023/06/12 08:11:46;;;;;;;4.60;2.00;;;24.90;70.70;;;;;;5077002;28;20204;-89
2023/06/12 08:14:12;;;;;;;5.93;2.03;;;24.90;70.60;;;;;;5077093;28;20203;-96
2023/06/12 08:16:38;;;;;;;5.15;2.33;;;25.10;71.10;;;;;;5077258;28;20565;-94
2023/06/12 08:19:04;;;;;;;10.35;2.63;;;25.20;69.70;;;;;;5077411;28;20173;-94
2023/06/12 08:21:30;;;;;;;3.75;2.15;;;25.20;68.80;;;;;;5075174;28;20506;-92
2023/06/12 08:23:56;;;;;;;4.65;2.20;;;25.10;69.60;;;;;;5076572;28;20192;-92
2023/06/12 08:26:24;;;;;;;2.90;2.10;;;25.30;69.90;;;;;;5076150;28;20173;-89
2023/06/12 08:28:50;;;;;;;7.65;2.38;;;25.40;68.60;;;;;;5076583;28;20181;-92
2023/06/12 08:31:16;;;;;;;3.88;2.25;;;25.50;67.80;;;;;;5076225;28;20204;-93
2023/06/12 08:33:42;;;;;;;4.95;2.83;;;25.50;65.90;;;;;;5075584;28;20189;-93
2023/06/12 08:36:07;;;;;;;4.78;2.00;;;25.60;69.00;;;;;;5076338;28;20329;-92
2023/06/12 08:38:33;;;;;;;3.95;2.30;;;25.70;68.70;;;;;;5076026;28;20177;-90
2023/06/12 08:41:02;;;;;;;4.95;2.45;;;25.70;64.00;;;;;;5075890;28;20174;-93
2023/06/12 08:43:30;;;;;;;6.78;2.17;;;25.70;65.00;;;;;;5075723;28;20203;-92
2023/06/12 08:45:57;;;;;;;7.45;2.38;;;25.60;62.30;;;;;;5075996;28;20169;-92
2023/06/12 08:48:27;;;;;;;3.80;1.85;;;25.50;65.30;;;;;;5075505;28;20173;-92
2023/06/12 08:50:53;;;;;;;3.15;2.35;;;25.60;65.40;;;;;;5075491;28;20608;-89
2023/06/12 08:53:20;;;;;;;3.17;1.92;;;25.80;65.60;;;;;;5076653;28;20181;-89
2023/06/12 08:55:46;;;;;;;5.20;2.22;;;25.80;66.60;;;;;;5075912;28;20200;-90
2023/06/12 08:58:13;;;;;;;3.42;2.15;;;25.90;66.60;;;;;;5075785;28;20679;-94
2023/06/12 09:00:39;;;;;;;6.43;2.80;;;26.00;64.60;;;;;;5076580;28;20220;-93
2023/06/12 09:03:06;;;;;;;5.45;2.50;;;26.10;65.60;;;;;;5075275;28;20634;-92
2023/06/12 09:05:37;;;;;;;3.08;2.30;;;25.90;62.20;;;;;;5076830;28;20184;-93
2023/06/12 09:08:04;;;;;;;4.80;2.00;;;25.90;62.60;;;;;;5075701;28;20165;-91
2023/06/12 09:10:32;;;;;;;5.93;2.50;;;26.00;62.70;;;;;;5075399;28;20256;-88
2023/06/12 09:12:58;;;;;;;2.05;1.80;;;26.10;62.50;;;;;;5075152;28;20221;-89
2023/06/12 09:15:25;;;;;;;3.70;2.50;;;26.10;62.10;;;;;;5076390;28;20165;-90
2023/06/12 09:17:56;;;;;;;7.45;2.83;;;26.10;61.70;;;;;;5076069;28;20665;-88
2023/06/12 09:20:29;;;;;;;3.33;2.50;;;26.10;63.30;;;;;;5075492;28;20169;-92
2023/06/12 09:23:00;;;;;;;6.03;2.50;;;26.10;62.70;;;;;;5076062;28;20264;-90
2023/06/12 09:25:37;;;;;;;7.30;2.35;;;26.20;62.80;;;;;;5075111;28;20250;-91
2023/06/12 09:28:04;;;;;;;6.85;2.80;;;26.30;62.40;;;;;;5074620;28;20177;-91
2023/06/12 09:30:38;;;;;;;3.83;2.67;;;26.40;62.50;;;;;;5075194;28;20169;-93
2023/06/12 09:33:05;;;;;;;8.10;2.72;;;26.20;62.20;;;;;;5074503;28;20217;-91
2023/06/12 09:35:31;;;;;;;2.92;2.25;;;26.40;61.60;;;;;;5074658;28;20195;-88
2023/06/12 09:37:58;;;;;;;3.50;2.30;;;26.50;62.20;;;;;;5074594;28;21053;-92
2023/06/12 09:40:24;;;;;;;2.75;2.35;;;26.50;62.10;;;;;;5074312;28;20239;-89
2023/06/12 09:42:50;;;;;;;3.08;2.20;;;26.50;60.20;;;;;;5074278;28;20595;-89
2023/06/12 09:45:18;;;;;;;3.00;2.30;;;26.50;59.60;;;;;;5074713;28;20185;-91
2023/06/12 09:47:47;;;;;;;4.85;2.25;;;26.60;60.60;;;;;;5074274;28;20184;-90
2023/06/12 09:50:15;;;;;;;2.80;2.28;;;26.50;60.10;;;;;;5074532;28;20276;-89
2023/06/12 09:52:42;;;;;;;5.82;2.72;;;26.60;60.70;;;;;;5073978;28;20208;-89
2023/06/12 09:55:15;;;;;;;5.45;2.60;;;26.70;60.60;;;;;;5074231;28;20177;-89
2023/06/12 09:57:50;;;;;;;4.70;2.67;;;26.70;61.50;;;;;;5074275;28;20184;-90
2023/06/12 10:00:17;;;;;;;5.28;2.33;;;26.80;59.90;;;;;;5074406;28;20190;-91
2023/06/12 10:02:56;;;;;;;4.97;2.70;;;26.80;60.50;;;;;;5074979;28;20231;-90
2023/06/12 10:05:35;;;;;;;9.88;2.42;;;26.80;59.20;;;;;;5074445;28;20180;-93
2023/06/12 10:08:03;;;;;;;4.82;2.00;;;27.00;59.60;;;;;;5074498;28;20551;-90
2023/06/12 10:10:33;;;;;;;10.57;2.60;;;26.90;59.10;;;;;;5074321;28;20196;-90
2023/06/12 10:13:01;;;;;;;6.63;2.42;;;27.00;59.80;;;;;;5074055;28;20216;-89
2023/06/12 10:15:29;;;;;;;8.05;2.28;;;27.00;60.40;;;;;;5075615;28;20219;-91
2023/06/12 10:17:57;;;;;;;6.90;2.40;;;27.10;58.30;;;;;;5073989;28;20184;-90
2023/06/12 10:20:24;;;;;;;4.18;2.38;;;27.10;59.10;;;;;;5073768;28;20173;-91
2023/06/12 10:22:53;;;;;;;5.32;2.50;;;27.00;58.70;;;;;;5074176;28;20181;-89
2023/06/12 10:25:19;;;;;;;7.30;2.08;;;27.00;59.80;;;;;;5075227;28;20177;-89
2023/06/12 10:27:58;;;;;;;4.60;2.30;;;27.00;61.70;;;;;;5074327;28;20490;-94
2023/06/12 10:30:23;;;;;;;6.30;2.53;;;27.00;59.10;;;;;;5073897;28;20653;-88
2023/06/12 10:32:50;;;;;;;4.40;2.40;;;26.80;57.40;;;;;;5073450;28;20220;-88
2023/06/12 10:35:31;;;;;;;8.20;2.30;;;26.80;57.90;;;;;;5074023;28;20177;-93
2023/06/12 10:37:58;;;;;;;4.25;1.92;;;26.70;57.60;;;;;;5073916;28;20181;-92
2023/06/12 10:40:24;;;;;;;7.60;2.20;;;26.70;60.00;;;;;;5073857;28;20219;-92
2023/06/12 10:43:04;;;;;;;4.88;2.35;;;26.80;58.80;;;;;;5072991;28;20237;-89
2023/06/12 10:45:36;;;;;;;6.30;2.50;;;26.90;57.90;;;;;;5073763;28;20200;-90
2023/06/12 10:48:14;;;;;;;6.15;2.25;;;27.00;56.70;;;;;;5073728;28;20180;-87
2023/06/12 10:50:43;;;;;;;3.92;2.70;;;27.30;55.20;;;;;;5073766;28;20173;-89
2023/06/12 10:53:23;;;;;;;5.32;2.40;;;27.10;54.20;;;;;;5073598;28;20223;-93
2023/06/12 10:55:55;;;;;;;4.85;2.60;;;27.20;55.80;;;;;;5073652;28;20200;-90
2023/06/12 10:58:25;;;;;;;4.85;2.55;;;27.40;55.90;;;;;;5073821;28;20181;-89
2023/06/12 11:00:52;;;;;;;3.60;2.50;;;27.50;54.80;;;;;;5073685;28;20629;-92
2023/06/12 11:03:25;;;;;;;4.65;2.40;;;27.40;54.50;;;;;;5073463;28;20223;-88
2023/06/12 11:05:58;;;;;;;6.28;2.40;;;27.40;54.70;;;;;;5073536;28;20176;-89
2023/06/12 11:08:28;;;;;;;3.30;2.10;;;27.50;57.40;;;;;;5073602;28;20165;-91
2023/06/12 11:10:54;;;;;;;6.15;2.45;;;27.60;55.90;;;;;;5073645;28;20180;-89
2023/06/12 11:13:26;;;;;;;3.10;2.20;;;27.80;56.90;;;;;;5074611;28;20256;-90
2023/06/12 11:15:53;;;;;;;5.28;2.47;;;27.90;55.10;;;;;;5073562;28;20177;-90
2023/06/12 11:18:19;;;;;;;4.70;2.20;;;27.90;55.50;;;;;;5073418;28;20544;-91
2023/06/12 11:20:56;;;;;;;4.97;2.47;;;28.00;56.80;;;;;;5074729;28;20169;-91
2023/06/12 11:23:23;;;;;;;5.72;2.10;;;28.10;55.20;;;;;;5073535;28;20177;-89
2023/06/12 11:25:52;;;;;;;3.83;2.60;;;28.10;54.50;;;;;;5073733;28;20183;-89
2023/06/12 11:28:23;;;;;;;2.72;2.30;;;28.20;56.90;;;;;;5073407;28;20185;-90
2023/06/12 11:30:51;;;;;;;4.68;2.20;;;28.30;55.30;;;;;;5074620;28;20189;-89
2023/06/12 11:33:17;;;;;;;3.60;2.50;;;28.10;55.80;;;;;;5073040;28;20190;-91
2023/06/12 11:35:48;;;;;;;5.05;3.00;;;28.10;58.70;;;;;;5073567;28;20177;-91
2023/06/12 11:38:25;;;;;;;3.92;2.38;;;28.10;57.70;;;;;;5073595;28;20510;-87
2023/06/12 11:40:51;;;;;;;6.53;2.65;;;28.30;59.50;;;;;;5072953;28;20259;-91
2023/06/12 11:43:22;;;;;;;2.97;2.58;;;28.20;56.60;;;;;;5073184;28;20173;-87
2023/06/12 11:45:49;;;;;;;6.28;2.60;;;28.10;58.20;;;;;;5073472;28;20177;-90
2023/06/12 11:48:17;;;;;;;7.88;2.78;;;28.20;56.20;;;;;;5073154;28;20234;-91
2023/06/12 11:50:52;;;;;;;7.88;2.58;;;28.10;57.90;;;;;;5073441;28;20199;-90
2023/06/12 11:53:20;;;;;;;4.00;2.72;;;28.10;57.00;;;;;;5073049;28;20184;-90
2023/06/12 11:55:47;;;;;;;8.40;3.05;;;28.20;57.40;;;;;;5076215;28;20178;-92
2023/06/12 11:58:13;;;;;;;6.63;2.90;;;28.00;56.30;;;;;;5076811;28;20181;-89
2023/06/12 12:00:41;;;;;;;3.63;2.70;;;28.10;58.20;;;;;;5076226;28;20519;-90
2023/06/12 12:03:13;;;;;;;9.02;2.60;;;28.10;59.20;;;;;;5077038;28;20602;-89
2023/06/12 12:05:39;;;;;;;8.82;2.80;;;28.10;60.20;;;;;;5076686;28;20611;-88
2023/06/12 12:08:06;;;;;;;8.60;2.83;;;28.30;58.70;;;;;;5076478;28;20234;-89
2023/06/12 12:10:41;;;;;;;4.40;2.63;;;28.40;59.60;;;;;;5076423;28;20615;-90
2023/06/12 12:13:06;;;;;;;5.32;2.60;;;28.30;60.10;;;;;;5076557;28;20281;-88
2023/06/12 12:15:40;;;;;;;4.10;2.78;;;28.50;61.00;;;;;;5076447;28;20249;-88
2023/06/12 12:18:17;;;;;;;4.38;2.83;;;28.60;59.80;;;;;;5076061;28;20184;-89
2023/06/12 12:20:48;;;;;;;5.57;2.65;;;28.50;59.30;;;;;;5076393;28;20161;-90
2023/06/12 12:23:14;;;;;;;4.72;2.90;;;28.50;58.80;;;;;;5076228;28;20616;-87
2023/06/12 12:25:44;;;;;;;3.03;2.70;;;28.50;61.00;;;;;;5076439;28;20181;-86
2023/06/12 12:28:10;;;;;;;5.70;2.85;;;28.70;60.10;;;;;;5076246;28;20199;-90
2023/06/12 12:30:37;;;;;;;4.78;2.72;;;28.50;57.70;;;;;;5075974;28;20562;-88
2023/06/12 12:33:03;;;;;;;5.43;2.63;;;28.50;58.60;;;;;;5075925;28;20216;-90
2023/06/12 12:35:29;;;;;;;6.40;3.10;;;28.50;58.60;;;;;;5075937;28;20310;-89
2023/06/12 12:37:56;;;;;;;4.78;3.28;;;28.60;59.40;;;;;;5075399;28;20331;-91
2023/06/12 12:40:28;;;;;;;5.00;3.15;;;28.60;58.70;;;;;;5076080;28;20201;-89
2023/06/12 12:42:54;;;;;;;5.90;2.63;;;28.80;58.70;;;;;;5075869;28;20177;-92
2023/06/12 12:45:20;;;;;;;3.67;2.80;;;28.90;58.40;;;;;;5075944;28;20193;-90
2023/06/12 12:47:49;;;;;;;6.35;2.80;;;28.80;56.00;;;;;;5075706;28;20371;-88
2023/06/12 12:50:18;;;;;;;8.27;2.67;;;28.70;57.20;;;;;;5075482;28;20177;-90
2023/06/12 12:52:44;;;;;;;4.43;2.78;;;28.70;58.40;;;;;;5075361;28;20211;-88